createdAt,value
2018-12-29T00:00:48.711Z,5.50
2018-12-29T00:03:17.729Z,5.50
2018-12-29T00:05:46.738Z,5.50
2018-12-29T00:08:15.954Z,5.50
2018-12-29T00:10:45.117Z,5.50
2018-12-29T00:13:14.182Z,5.50
2018-12-29T00:15:43.707Z,5.50
2018-12-29T00:18:12.958Z,5.50
2018-12-29T00:20:42.016Z,5.50
2018-12-29T00:23:11.138Z,5.50
2018-12-29T00:25:40.212Z,5.50
2018-12-29T00:28:09.292Z,5.50
2018-12-29T00:30:38.546Z,5.50
2018-12-29T00:33:08.334Z,5.50
2018-12-29T00:35:37.340Z,5.50
2018-12-29T00:38:06.378Z,5.50
2018-12-29T00:40:35.768Z,5.50
2018-12-29T00:43:05.087Z,5.50
2018-12-29T00:45:34.126Z,5.50
2018-12-29T00:48:03.245Z,5.50
2018-12-29T00:50:32.317Z,5.50
2018-12-29T00:53:01.322Z,5.50
2018-12-29T00:55:30.375Z,5.50
2018-12-29T00:57:59.369Z,5.50
2018-12-29T01:00:28.348Z,5.50
2018-12-29T01:02:57.444Z,5.50
2018-12-29T01:05:26.443Z,5.50
2018-12-29T01:07:55.461Z,5.50
2018-12-29T01:10:24.500Z,5.40
2018-12-29T01:12:53.462Z,5.40
2018-12-29T01:15:22.485Z,5.40
2018-12-29T01:17:51.591Z,5.40
2018-12-29T01:20:20.649Z,5.40
2018-12-29T01:22:49.837Z,5.40
2018-12-29T01:25:18.821Z,5.40
2018-12-29T01:27:47.773Z,5.40
2018-12-29T01:30:17.315Z,5.50
2018-12-29T01:32:46.415Z,5.50
2018-12-29T01:35:15.423Z,5.50
2018-12-29T01:37:44.677Z,5.50
2018-12-29T01:40:13.557Z,5.50
2018-12-29T01:42:42.504Z,5.40
2018-12-29T01:45:17.300Z,5.40
2018-12-29T01:47:42.363Z,5.40
2018-12-29T01:50:11.325Z,5.40
2018-12-29T01:52:40.318Z,5.40
2018-12-29T01:55:09.294Z,5.40
2018-12-29T01:57:38.192Z,5.40
2018-12-29T02:00:07.342Z,5.40
2018-12-29T02:02:36.203Z,5.40
2018-12-29T02:05:05.652Z,5.40
2018-12-29T02:07:34.720Z,5.40
2018-12-29T02:10:03.792Z,5.40
2018-12-29T02:12:32.791Z,5.40
2018-12-29T02:15:01.694Z,5.40
2018-12-29T02:17:30.562Z,5.40
2018-12-29T02:19:59.476Z,5.40
2018-12-29T02:22:28.782Z,5.40
2018-12-29T02:24:57.748Z,5.40
2018-12-29T02:27:27.531Z,5.30
2018-12-29T02:29:56.533Z,5.30
2018-12-29T02:32:25.558Z,5.30
2018-12-29T02:34:54.677Z,5.30
2018-12-29T02:37:23.726Z,5.30
2018-12-29T02:39:52.869Z,5.30
2018-12-29T02:42:22.023Z,5.30
2018-12-29T02:44:51.206Z,5.40
2018-12-29T02:47:20.316Z,5.40
2018-12-29T02:49:49.458Z,5.30
2018-12-29T02:52:18.433Z,5.30
2018-12-29T02:54:47.540Z,5.30
2018-12-29T02:57:16.534Z,5.30
2018-12-29T02:59:45.487Z,5.30
2018-12-29T03:02:14.471Z,5.30
2018-12-29T03:04:43.412Z,5.30
2018-12-29T03:07:14.807Z,5.40
2018-12-29T03:09:43.749Z,5.30
2018-12-29T03:12:12.692Z,5.30
2018-12-29T03:14:41.666Z,5.30
2018-12-29T03:17:10.787Z,5.30
2018-12-29T03:19:39.604Z,5.30
2018-12-29T03:22:08.471Z,5.30
2018-12-29T03:24:37.274Z,5.30
2018-12-29T03:27:06.108Z,5.30
2018-12-29T03:29:35.020Z,5.30
2018-12-29T03:32:03.966Z,5.30
2018-12-29T03:34:32.853Z,5.30
2018-12-29T03:37:01.732Z,5.30
2018-12-29T03:39:30.572Z,5.30
2018-12-29T03:41:59.399Z,5.20
2018-12-29T03:44:28.212Z,5.20
2018-12-29T03:46:57.001Z,5.30
2018-12-29T03:49:25.853Z,5.30
2018-12-29T03:51:54.746Z,5.30
2018-12-29T03:54:23.609Z,5.20
2018-12-29T03:56:52.429Z,5.30
2018-12-29T03:59:21.277Z,5.30
2018-12-29T04:01:50.069Z,5.30
2018-12-29T04:04:18.978Z,5.30
2018-12-29T04:06:47.889Z,5.30
2018-12-29T04:09:34.902Z,5.20
2018-12-29T04:12:09.606Z,5.20
2018-12-29T04:14:38.517Z,5.20
2018-12-29T04:17:07.324Z,5.20
2018-12-29T04:19:36.102Z,5.30
2018-12-29T04:22:04.995Z,5.20
2018-12-29T04:24:33.811Z,5.20
2018-12-29T04:27:02.605Z,5.30
2018-12-29T04:29:31.517Z,5.30
2018-12-29T04:32:00.357Z,5.20
2018-12-29T04:34:29.153Z,5.20
2018-12-29T04:36:57.934Z,5.20
2018-12-29T04:39:26.816Z,5.20
2018-12-29T04:41:55.680Z,5.20
2018-12-29T04:44:24.520Z,5.20
2018-12-29T04:46:53.382Z,5.20
2018-12-29T04:49:22.216Z,5.20
2018-12-29T04:51:51.078Z,5.20
2018-12-29T04:54:19.854Z,5.20
2018-12-29T04:56:48.846Z,5.20
2018-12-29T04:59:17.721Z,5.20
2018-12-29T05:01:46.640Z,5.20
2018-12-29T05:04:15.502Z,5.30
2018-12-29T05:06:44.440Z,5.20
2018-12-29T05:09:13.297Z,5.20
2018-12-29T05:11:42.122Z,5.20
2018-12-29T05:14:11.065Z,5.20
2018-12-29T05:16:39.852Z,5.20
2018-12-29T05:19:08.710Z,5.20
2018-12-29T05:21:37.754Z,5.20
2018-12-29T05:24:06.574Z,5.20
2018-12-29T05:26:35.434Z,5.20
2018-12-29T05:29:04.255Z,5.30
2018-12-29T05:31:33.090Z,5.20
2018-12-29T05:34:01.968Z,5.20
2018-12-29T05:36:30.832Z,5.20
2018-12-29T05:38:59.694Z,5.20
2018-12-29T05:41:28.502Z,5.20
2018-12-29T05:43:57.334Z,5.20
2018-12-29T05:46:26.156Z,5.20
2018-12-29T05:48:55.058Z,5.20
2018-12-29T05:51:23.934Z,5.10
2018-12-29T05:53:53.499Z,5.20
2018-12-29T05:56:22.391Z,5.20
2018-12-29T05:58:51.307Z,5.20
2018-12-29T06:01:20.235Z,5.20
2018-12-29T06:03:49.151Z,5.10
2018-12-29T06:06:18.144Z,5.20
2018-12-29T06:08:46.989Z,5.10
2018-12-29T06:11:15.783Z,5.10
2018-12-29T06:13:44.639Z,5.10
2018-12-29T06:16:14.444Z,5.20
2018-12-29T06:18:43.280Z,5.20
2018-12-29T06:21:12.073Z,5.20
2018-12-29T06:23:40.918Z,5.10
2018-12-29T06:26:09.952Z,5.20
2018-12-29T06:28:38.826Z,5.20
2018-12-29T06:31:07.632Z,5.20
2018-12-29T06:33:36.465Z,5.20
2018-12-29T06:36:05.329Z,5.20
2018-12-29T06:38:34.153Z,5.20
2018-12-29T06:41:03.034Z,5.10
2018-12-29T06:43:31.883Z,5.10
2018-12-29T06:46:00.794Z,5.10
2018-12-29T06:48:29.626Z,5.10
2018-12-29T06:50:58.534Z,5.10
2018-12-29T06:53:27.365Z,5.10
2018-12-29T06:55:56.241Z,5.10
2018-12-29T06:58:25.165Z,5.10
2018-12-29T07:00:54.103Z,5.10
2018-12-29T07:03:22.990Z,5.10
2018-12-29T07:05:51.803Z,5.10
2018-12-29T07:08:20.715Z,5.10
2018-12-29T07:10:49.617Z,5.10
2018-12-29T07:13:18.461Z,5.00
2018-12-29T07:15:47.273Z,5.00
2018-12-29T07:18:16.132Z,5.00
2018-12-29T07:20:45.072Z,5.00
2018-12-29T07:23:13.915Z,5.00
2018-12-29T07:25:42.706Z,5.10
2018-12-29T07:28:11.526Z,5.10
2018-12-29T07:30:40.336Z,5.10
2018-12-29T07:33:09.178Z,5.00
2018-12-29T07:35:38.112Z,5.00
2018-12-29T07:38:06.938Z,5.10
2018-12-29T07:40:35.788Z,5.00
2018-12-29T07:43:04.711Z,5.10
2018-12-29T07:45:33.667Z,5.10
2018-12-29T07:48:02.517Z,5.10
2018-12-29T07:50:31.465Z,5.10
2018-12-29T07:53:00.377Z,5.10
2018-12-29T07:55:29.247Z,5.00
2018-12-29T07:57:58.110Z,5.10
2018-12-29T08:00:27.029Z,5.00
2018-12-29T08:02:55.891Z,5.10
2018-12-29T08:05:24.709Z,5.10
2018-12-29T08:07:53.844Z,5.10
2018-12-29T08:10:22.743Z,5.10
2018-12-29T08:12:51.574Z,5.10
2018-12-29T08:15:20.450Z,5.10
2018-12-29T08:17:49.237Z,5.00
2018-12-29T08:20:18.099Z,5.10
2018-12-29T08:22:46.929Z,5.10
2018-12-29T08:25:15.798Z,5.00
2018-12-29T08:27:44.619Z,5.10
2018-12-29T08:30:13.488Z,5.20
2018-12-29T08:32:42.286Z,5.20
2018-12-29T08:35:11.133Z,5.20
2018-12-29T08:37:39.967Z,5.10
2018-12-29T08:40:08.789Z,5.20
2018-12-29T08:42:37.678Z,5.20
2018-12-29T08:45:06.678Z,5.20
2018-12-29T08:47:35.565Z,5.10
2018-12-29T08:50:04.933Z,5.10
2018-12-29T08:52:33.911Z,5.10
2018-12-29T08:55:02.705Z,5.10
2018-12-29T08:57:31.543Z,5.10
2018-12-29T09:00:00.451Z,5.10
2018-12-29T09:02:29.326Z,5.10
2018-12-29T09:05:00.502Z,5.10
2018-12-29T09:07:29.334Z,5.30
2018-12-29T09:09:58.195Z,5.40
2018-12-29T09:12:27.012Z,5.50
2018-12-29T09:14:55.900Z,5.50
2018-12-29T09:17:24.834Z,5.40
2018-12-29T09:19:54.161Z,5.40
2018-12-29T09:22:23.933Z,5.30
2018-12-29T09:25:04.741Z,5.40
2018-12-29T09:28:02.870Z,5.30
2018-12-29T09:30:32.470Z,5.30
2018-12-29T09:33:08.798Z,5.30
2018-12-29T09:36:08.646Z,5.30
2018-12-29T09:38:38.273Z,5.30
2018-12-29T09:41:26.366Z,5.40
2018-12-29T09:43:58.370Z,5.40
2018-12-29T09:46:31.728Z,5.40
2018-12-29T09:49:10.514Z,5.30
2018-12-29T09:51:53.448Z,5.30
2018-12-29T09:54:23.257Z,5.40
2018-12-29T09:56:52.276Z,5.30
2018-12-29T09:59:24.520Z,5.30
2018-12-29T10:01:53.469Z,5.30
2018-12-29T10:04:27.041Z,5.30
2018-12-29T10:07:02.504Z,5.30
2018-12-29T10:09:32.295Z,5.40
2018-12-29T10:12:02.190Z,5.50
2018-12-29T10:14:34.200Z,5.50
2018-12-29T10:20:46.117Z,5.50
2018-12-29T10:26:37.532Z,5.50
2018-12-29T10:29:44.890Z,5.50
2018-12-29T10:33:05.732Z,5.60
2018-12-29T10:35:35.766Z,5.60
2018-12-29T10:38:09.073Z,5.60
2018-12-29T10:40:38.886Z,5.60
2018-12-29T10:43:08.384Z,5.60
2018-12-29T10:45:47.072Z,5.60
2018-12-29T10:48:24.298Z,5.60
2018-12-29T10:50:57.122Z,5.60
2018-12-29T10:53:53.190Z,5.60
2018-12-29T10:56:24.488Z,5.60
2018-12-29T10:58:54.550Z,5.60
2018-12-29T11:01:25.417Z,5.60
2018-12-29T11:03:55.396Z,5.60
2018-12-29T11:06:27.704Z,5.60
2018-12-29T11:09:08.474Z,5.60
2018-12-29T11:11:38.399Z,5.60
2018-12-29T11:14:12.281Z,5.70
2018-12-29T11:16:42.370Z,5.70
2018-12-29T11:19:42.576Z,5.70
2018-12-29T11:22:21.365Z,5.70
2018-12-29T11:25:03.018Z,5.60
2018-12-29T11:27:58.729Z,5.60
2018-12-29T11:30:53.260Z,5.60
2018-12-29T11:34:17.670Z,5.70
2018-12-29T11:36:59.096Z,5.70
2018-12-29T11:39:36.188Z,5.70
2018-12-29T11:42:08.037Z,5.80
2018-12-29T11:44:47.087Z,5.80
2018-12-29T11:48:04.249Z,5.90
2018-12-29T11:50:36.253Z,5.90
2018-12-29T11:53:33.647Z,5.90
2018-12-29T11:56:09.611Z,5.90
2018-12-29T11:58:42.372Z,6.00
2018-12-29T12:01:11.385Z,6.00
2018-12-29T12:03:41.452Z,6.00
2018-12-29T12:06:10.974Z,6.00
2018-12-29T12:08:48.871Z,6.00
2018-12-29T12:11:18.771Z,6.00
2018-12-29T12:13:54.396Z,6.00
2018-12-29T12:16:38.343Z,6.10
2018-12-29T12:19:07.381Z,6.10
2018-12-29T12:21:41.771Z,6.00
2018-12-29T12:24:11.489Z,6.00
2018-12-29T12:26:41.468Z,6.10
2018-12-29T12:29:10.990Z,6.00
2018-12-29T12:31:44.182Z,6.10
2018-12-29T12:34:20.121Z,6.00
2018-12-29T12:37:03.168Z,6.10
2018-12-29T12:40:08.596Z,6.10
2018-12-29T12:42:38.717Z,6.00
2018-12-29T12:45:15.177Z,6.00
2018-12-29T12:47:44.856Z,6.00
2018-12-29T12:50:14.148Z,6.00
2018-12-29T12:52:50.061Z,6.00
2018-12-29T12:55:27.047Z,6.10
2018-12-29T12:58:03.703Z,6.10
2018-12-29T13:00:33.792Z,6.10
2018-12-29T13:03:03.951Z,6.10
2018-12-29T13:05:33.603Z,6.10
2018-12-29T13:08:33.529Z,6.10
2018-12-29T13:11:10.269Z,6.10
2018-12-29T13:13:42.925Z,6.10
2018-12-29T13:16:12.727Z,6.10
2018-12-29T13:18:46.735Z,6.10
2018-12-29T13:21:16.289Z,6.20
2018-12-29T13:23:51.375Z,6.20
2018-12-29T13:26:21.535Z,6.20
2018-12-29T13:31:22.867Z,6.30
2018-12-29T13:33:58.452Z,6.30
2018-12-29T13:36:28.415Z,6.30
2018-12-29T13:39:32.442Z,6.30
2018-12-29T13:42:01.924Z,6.30
2018-12-29T13:44:31.655Z,6.30
2018-12-29T13:47:01.124Z,6.30
2018-12-29T13:49:36.193Z,6.20
2018-12-29T13:52:05.652Z,6.30
2018-12-29T13:55:15.463Z,6.30
2018-12-29T13:58:25.175Z,6.20
2018-12-29T14:00:54.775Z,6.30
2018-12-29T14:03:26.287Z,6.30
2018-12-29T14:06:08.422Z,6.30
2018-12-29T14:08:59.120Z,6.30
2018-12-29T14:11:28.796Z,6.30
2018-12-29T14:14:02.813Z,6.30
2018-12-29T14:16:38.209Z,6.30
2018-12-29T14:19:17.848Z,6.30
2018-12-29T14:21:54.552Z,6.40
2018-12-29T14:24:24.246Z,6.40
2018-12-29T14:26:53.339Z,6.30
2018-12-29T14:29:24.097Z,6.40
2018-12-29T14:31:55.184Z,6.30
2018-12-29T14:34:24.843Z,6.30
2018-12-29T14:36:59.097Z,6.40
2018-12-29T14:39:50.993Z,6.30
2018-12-29T14:42:20.659Z,6.40
2018-12-29T14:45:05.829Z,6.30
2018-12-29T14:47:52.203Z,6.30
2018-12-29T14:51:12.121Z,6.40
2018-12-29T14:53:46.166Z,6.40
2018-12-29T14:59:51.733Z,6.50
2018-12-29T15:02:30.108Z,6.40
2018-12-29T15:05:03.167Z,6.50
2018-12-29T15:07:50.252Z,6.50
2018-12-29T15:13:10.110Z,6.40
2018-12-29T15:15:39.974Z,6.50
2018-12-29T15:18:11.970Z,6.50
2018-12-29T15:20:48.084Z,6.50
2018-12-29T15:23:20.144Z,6.50
2018-12-29T15:25:49.650Z,6.50
2018-12-29T15:28:21.580Z,6.50
2018-12-29T15:31:01.894Z,6.50
2018-12-29T15:33:41.975Z,6.50
2018-12-29T15:36:16.002Z,6.50
2018-12-29T15:38:45.647Z,6.50
2018-12-29T15:41:20.940Z,6.50
2018-12-29T15:43:51.078Z,6.50
2018-12-29T15:46:20.560Z,6.50
2018-12-29T15:48:51.111Z,6.50
2018-12-29T15:51:20.946Z,6.50
2018-12-29T15:53:50.414Z,6.50
2018-12-29T15:56:20.450Z,6.50
2018-12-29T15:59:09.416Z,6.40
2018-12-29T16:01:45.578Z,6.40
2018-12-29T16:04:43.601Z,6.40
2018-12-29T16:07:28.311Z,6.40
2018-12-29T16:10:26.881Z,6.40
2018-12-29T16:12:47.782Z,6.40
2018-12-29T16:15:20.065Z,6.40
2018-12-29T16:17:53.176Z,6.40
2018-12-29T16:20:32.106Z,6.40
2018-12-29T16:23:02.302Z,6.40
2018-12-29T16:25:31.904Z,6.40
2018-12-29T16:28:08.751Z,6.40
2018-12-29T16:30:46.472Z,6.40
2018-12-29T16:33:29.266Z,6.40
2018-12-29T16:36:00.252Z,6.40
2018-12-29T16:38:29.548Z,6.40
2018-12-29T16:41:00.598Z,6.40
2018-12-29T16:43:30.105Z,6.40
2018-12-29T16:45:59.513Z,6.40
2018-12-29T16:48:31.114Z,6.50
2018-12-29T16:51:00.642Z,6.50
2018-12-29T16:53:30.362Z,6.50
2018-12-29T16:56:19.797Z,6.50
2018-12-29T16:58:49.007Z,6.50
2018-12-29T17:01:25.704Z,6.50
2018-12-29T17:03:59.866Z,6.70
2018-12-29T17:06:38.123Z,6.60
2018-12-29T17:09:10.868Z,6.60
2018-12-29T17:11:40.061Z,6.60
2018-12-29T17:14:17.235Z,6.50
2018-12-29T17:17:11.787Z,6.50
2018-12-29T17:19:44.677Z,6.50
2018-12-29T17:22:54.135Z,6.40
2018-12-29T17:25:35.915Z,6.40
2018-12-29T17:28:05.279Z,6.40
2018-12-29T17:30:34.191Z,6.30
2018-12-29T17:33:03.099Z,6.40
2018-12-29T17:35:36.211Z,6.40
2018-12-29T17:38:05.545Z,6.40
2018-12-29T17:40:41.115Z,6.40
2018-12-29T17:43:10.294Z,6.40
2018-12-29T17:45:42.673Z,6.40
2018-12-29T17:48:12.110Z,6.40
2018-12-29T17:50:41.445Z,6.40
2018-12-29T17:53:48.422Z,6.40
2018-12-29T17:56:24.313Z,6.40
2018-12-29T17:58:57.003Z,6.40
2018-12-29T18:01:26.599Z,6.40
2018-12-29T18:03:55.816Z,6.40
2018-12-29T18:06:26.991Z,6.40
2018-12-29T18:09:04.338Z,6.40
2018-12-29T18:11:33.543Z,6.40
2018-12-29T18:14:03.272Z,6.40
2018-12-29T18:16:32.486Z,6.40
2018-12-29T18:19:02.304Z,6.30
2018-12-29T18:21:32.052Z,6.30
2018-12-29T18:24:01.388Z,6.30
2018-12-29T18:26:30.716Z,6.20
2018-12-29T18:29:11.080Z,6.20
2018-12-29T18:31:49.298Z,6.20
2018-12-29T18:34:18.913Z,6.20
2018-12-29T18:36:48.404Z,6.30
2018-12-29T18:39:36.608Z,6.30
2018-12-29T18:42:08.943Z,6.30
2018-12-29T18:44:38.645Z,6.30
2018-12-29T18:47:08.452Z,6.30
2018-12-29T18:49:38.552Z,6.30
2018-12-29T18:52:08.398Z,6.20
2018-12-29T18:54:37.741Z,6.20
2018-12-29T18:57:06.759Z,6.20
2018-12-29T18:59:35.929Z,6.20
2018-12-29T19:02:05.536Z,6.10
2018-12-29T19:04:44.975Z,6.10
2018-12-29T19:10:06.338Z,5.90
2018-12-29T19:12:35.570Z,5.80
2018-12-29T19:15:05.763Z,5.80
2018-12-29T19:17:36.643Z,5.70
2018-12-29T19:20:07.125Z,5.60
2018-12-29T19:22:36.321Z,5.60
2018-12-29T19:25:05.866Z,5.50
2018-12-29T19:27:35.144Z,5.40
2018-12-29T19:30:05.391Z,5.30
2018-12-29T19:32:35.156Z,5.20
2018-12-29T19:35:04.733Z,5.10
2018-12-29T19:37:34.191Z,5.10
2018-12-29T19:40:03.385Z,5.00
2018-12-29T19:42:33.249Z,5.00
2018-12-29T19:45:02.595Z,4.90
2018-12-29T19:47:32.711Z,4.90
2018-12-29T19:50:02.007Z,4.80
2018-12-29T19:52:31.453Z,4.80
2018-12-29T19:55:00.693Z,4.70
2018-12-29T19:57:30.508Z,4.70
2018-12-29T19:59:59.743Z,4.60
2018-12-29T20:02:29.243Z,4.60
2018-12-29T20:04:59.021Z,4.60
2018-12-29T20:07:31.773Z,4.60
2018-12-29T20:10:08.821Z,4.50
2018-12-29T20:12:50.507Z,4.50
2018-12-29T20:15:31.685Z,4.50
2018-12-29T20:18:03.531Z,4.40
2018-12-29T20:20:38.803Z,4.40
2018-12-29T20:23:08.251Z,4.40
2018-12-29T20:25:37.218Z,4.30
2018-12-29T20:28:09.924Z,4.30
2018-12-29T20:30:39.497Z,4.30
2018-12-29T20:33:08.639Z,4.30
2018-12-29T20:36:05.566Z,4.30
2018-12-29T20:38:34.848Z,4.20
2018-12-29T20:41:09.756Z,4.20
2018-12-29T20:43:42.434Z,4.20
2018-12-29T20:46:17.981Z,4.20
2018-12-29T20:48:42.947Z,4.20
2018-12-29T20:51:14.665Z,4.20
2018-12-29T20:53:45.764Z,4.20
2018-12-29T20:56:17.872Z,4.20
2018-12-29T20:58:54.428Z,4.20
2018-12-29T21:01:24.051Z,4.30
2018-12-29T21:03:54.266Z,4.20
2018-12-29T21:06:24.925Z,4.30
2018-12-29T21:12:35.654Z,4.40
2018-12-29T21:15:06.513Z,4.40
2018-12-29T21:21:13.147Z,4.60
2018-12-29T21:30:15.339Z,4.70
2018-12-29T21:32:46.410Z,4.80
2018-12-29T21:35:21.116Z,4.70
2018-12-29T21:37:50.687Z,4.80
2018-12-29T21:40:22.901Z,4.80
2018-12-29T21:43:35.650Z,4.80
2018-12-29T21:47:07.012Z,4.80
2018-12-29T21:49:37.921Z,4.80
2018-12-29T21:52:07.470Z,4.80
2018-12-29T21:54:37.028Z,4.80
2018-12-29T21:57:07.784Z,4.80
2018-12-29T21:59:36.952Z,4.90
2018-12-29T22:02:19.911Z,4.80
2018-12-29T22:04:55.229Z,4.70
2018-12-29T22:07:31.055Z,4.60
2018-12-29T22:10:05.886Z,4.60
2018-12-29T22:12:39.255Z,4.60
2018-12-29T22:15:15.798Z,4.60
2018-12-29T22:17:45.058Z,4.60
2018-12-29T22:20:14.661Z,4.60
2018-12-29T22:22:44.359Z,4.60
2018-12-29T22:25:13.802Z,4.60
2018-12-29T22:27:43.481Z,4.60
2018-12-29T22:30:12.767Z,4.60
2018-12-29T22:32:51.263Z,4.60
2018-12-29T22:35:20.419Z,4.60
2018-12-29T22:37:52.427Z,4.60
2018-12-29T22:40:26.845Z,4.60
2018-12-29T22:42:56.491Z,4.60
2018-12-29T22:45:29.693Z,4.60
2018-12-29T22:48:06.435Z,4.60
2018-12-29T22:50:40.952Z,4.60
2018-12-29T22:53:07.427Z,4.60
2018-12-29T22:55:53.139Z,4.60
2018-12-29T23:00:29.129Z,4.60
2018-12-29T23:01:15.257Z,4.60
2018-12-29T23:03:45.617Z,4.60
2018-12-29T23:06:21.898Z,4.60
2018-12-29T23:09:12.809Z,4.60
2018-12-29T23:11:43.776Z,4.60
2018-12-29T23:14:30.093Z,4.60
2018-12-29T23:17:02.956Z,4.60
2018-12-29T23:19:32.965Z,4.60
2018-12-29T23:22:02.579Z,4.60
2018-12-29T23:24:41.554Z,4.70
2018-12-29T23:27:11.179Z,4.70
2018-12-29T23:29:46.139Z,4.70
2018-12-29T23:32:23.091Z,4.70
2018-12-29T23:35:04.396Z,4.70
2018-12-29T23:37:48.162Z,4.70
2018-12-29T23:40:19.033Z,4.70
2018-12-29T23:45:48.005Z,4.70
2018-12-29T23:48:20.882Z,4.80
2018-12-29T23:51:05.243Z,4.80
2018-12-29T23:53:47.331Z,4.80
2018-12-29T23:56:25.720Z,4.80
2018-12-29T23:58:56.216Z,4.90
